createdAt,value
2022-12-08T15:53:10.756Z,8.32
2022-12-08T15:55:39.786Z,8.82
2022-12-08T16:00:56.808Z,8.40
2022-12-08T16:04:13.713Z,10.05
2022-12-08T16:09:12.969Z,8.30
2022-12-08T16:12:10.922Z,7.90
2022-12-08T16:17:32.564Z,12.25
2022-12-08T16:20:01.141Z,12.52
2022-12-08T16:25:22.714Z,8.23
2022-12-08T16:28:08.322Z,8.85
2022-12-08T16:30:40.689Z,11.55
2022-12-08T16:33:08.505Z,10.13
2022-12-08T16:35:36.337Z,11.07
2022-12-08T16:38:04.533Z,9.75
2022-12-08T16:40:54.153Z,13.45
2022-12-08T16:43:20.937Z,10.60
2022-12-08T16:45:48.669Z,14.18
2022-12-08T16:48:16.421Z,14.93
2022-12-08T16:50:46.625Z,13.25
2022-12-08T16:53:14.439Z,14.23
2022-12-08T16:55:47.106Z,13.57
2022-12-08T16:58:14.950Z,10.93
2022-12-08T17:00:43.142Z,10.30
2022-12-08T17:03:14.670Z,12.52
2022-12-08T17:05:42.863Z,15.73
2022-12-08T17:08:10.722Z,14.27
2022-12-08T17:10:40.189Z,17.77
2022-12-08T17:13:09.698Z,17.27
2022-12-08T17:15:37.616Z,16.23
2022-12-08T17:18:05.530Z,18.98
2022-12-08T17:20:36.087Z,18.17
2022-12-08T17:23:03.852Z,10.85
2022-12-08T17:25:31.663Z,11.10
2022-12-08T17:27:59.376Z,10.20
2022-12-08T17:30:28.443Z,14.10
2022-12-08T17:32:56.195Z,11.88
2022-12-08T17:35:24.017Z,10.25
2022-12-08T17:37:51.825Z,9.82
2022-12-08T17:40:19.690Z,10.13
2022-12-08T17:42:47.462Z,9.73
2022-12-08T17:45:15.167Z,11.75
2022-12-08T17:47:44.352Z,11.82
2022-12-08T17:50:12.134Z,11.98
2022-12-08T17:52:39.943Z,17.17
2022-12-08T17:55:09.010Z,15.57
2022-12-08T17:57:36.997Z,11.65
2022-12-08T18:00:06.178Z,14.65
2022-12-08T18:02:35.516Z,10.52
2022-12-08T18:05:05.195Z,10.50
2022-12-08T18:07:33.135Z,9.20
2022-12-08T18:10:00.944Z,11.50
2022-12-08T18:12:28.798Z,10.90
2022-12-08T18:14:56.755Z,11.63
2022-12-08T18:17:24.646Z,10.80
2022-12-08T18:19:52.459Z,10.52
2022-12-08T18:22:21.542Z,12.57
2022-12-08T18:24:49.286Z,14.15
2022-12-08T18:27:17.155Z,13.88
2022-12-08T18:29:44.997Z,12.70
2022-12-08T18:32:12.933Z,11.57
2022-12-08T18:34:40.783Z,9.95
2022-12-08T18:37:08.830Z,8.98
2022-12-08T18:39:38.413Z,10.38
2022-12-08T18:42:23.006Z,10.95
2022-12-08T18:44:51.484Z,11.30
2022-12-08T18:47:19.887Z,10.80
2022-12-08T18:49:47.674Z,9.63
2022-12-08T18:52:17.881Z,10.35
2022-12-08T18:55:05.714Z,10.07
2022-12-08T18:57:34.666Z,10.88
2022-12-08T19:00:03.616Z,10.55
2022-12-08T19:02:31.889Z,9.68
2022-12-08T19:04:59.800Z,9.60
2022-12-08T19:07:27.650Z,10.95
2022-12-08T19:09:57.034Z,10.25
2022-12-08T19:12:24.903Z,9.18
2022-12-08T19:14:52.749Z,10.43
2022-12-08T19:17:21.001Z,9.65
2022-12-08T19:19:48.750Z,9.15
2022-12-08T19:22:16.593Z,9.90
2022-12-08T19:24:44.639Z,10.55
2022-12-08T19:27:13.955Z,10.73
2022-12-08T19:29:41.677Z,8.95
2022-12-08T19:32:09.424Z,10.30
2022-12-08T19:34:37.199Z,9.70
2022-12-08T19:37:04.990Z,10.18
2022-12-08T19:39:50.667Z,10.77
2022-12-08T19:42:39.070Z,9.05
2022-12-08T19:45:11.745Z,9.68
2022-12-08T19:47:40.546Z,11.70
2022-12-08T19:50:28.845Z,10.63
2022-12-08T19:52:56.947Z,9.80
2022-12-08T19:55:25.766Z,10.15
2022-12-08T19:57:56.591Z,10.65
2022-12-08T20:00:24.539Z,10.27
2022-12-08T20:02:52.422Z,9.30
2022-12-08T20:05:21.240Z,9.32
2022-12-08T20:07:49.287Z,7.88
2022-12-08T20:10:19.529Z,8.48
2022-12-08T20:12:47.326Z,8.05
2022-12-08T20:15:16.696Z,8.00
2022-12-08T20:17:44.573Z,8.32
2022-12-08T20:20:14.567Z,8.13
2022-12-08T20:22:42.833Z,8.27
2022-12-08T20:25:12.978Z,8.98
2022-12-08T20:27:42.067Z,7.78
2022-12-08T20:30:16.444Z,7.93
2022-12-08T20:32:46.128Z,8.65
2022-12-08T20:35:13.908Z,7.93
2022-12-08T20:37:41.638Z,8.10
2022-12-08T20:40:10.447Z,7.50
2022-12-08T20:42:38.384Z,7.88
2022-12-08T20:45:09.056Z,7.68
2022-12-08T20:47:37.818Z,7.70
2022-12-08T20:50:08.716Z,9.10
2022-12-08T20:52:38.311Z,6.50
2022-12-08T20:55:07.529Z,7.97
2022-12-08T20:57:35.550Z,7.78
2022-12-08T21:00:04.067Z,7.82
2022-12-08T21:02:32.133Z,9.27
